sensor_id;sensor_type;location;lat;lon;timestamp;P1;durP1;ratioP1;P2;durP2;ratioP2
76852;SDS011;65825;52.232;10.566;2023-12-20T00:02:06;7.50;;;4.85;;
76852;SDS011;65825;52.232;10.566;2023-12-20T00:04:31;7.50;;;4.37;;
76852;SDS011;65825;52.232;10.566;2023-12-20T00:06:56;8.20;;;5.17;;
76852;SDS011;65825;52.232;10.566;2023-12-20T00:09:21;7.38;;;4.57;;
76852;SDS011;65825;52.232;10.566;2023-12-20T00:11:47;6.87;;;4.57;;
76852;SDS011;65825;52.232;10.566;2023-12-20T00:14:12;8.13;;;5.07;;
76852;SDS011;65825;52.232;10.566;2023-12-20T00:16:37;8.07;;;4.40;;
76852;SDS011;65825;52.232;10.566;2023-12-20T00:19:02;6.67;;;4.53;;
76852;SDS011;65825;52.232;10.566;2023-12-20T00:21:27;8.75;;;5.30;;
76852;SDS011;65825;52.232;10.566;2023-12-20T00:23:52;6.70;;;4.45;;
76852;SDS011;65825;52.232;10.566;2023-12-20T00:26:17;8.50;;;4.85;;
76852;SDS011;65825;52.232;10.566;2023-12-20T00:28:43;9.03;;;5.03;;
76852;SDS011;65825;52.232;10.566;2023-12-20T00:31:08;8.52;;;4.65;;
76852;SDS011;65825;52.232;10.566;2023-12-20T00:33:33;8.07;;;4.50;;
76852;SDS011;65825;52.232;10.566;2023-12-20T00:35:58;7.87;;;4.17;;
76852;SDS011;65825;52.232;10.566;2023-12-20T00:38:23;8.13;;;4.73;;
76852;SDS011;65825;52.232;10.566;2023-12-20T00:40:48;8.00;;;4.70;;
76852;SDS011;65825;52.232;10.566;2023-12-20T00:43:14;9.85;;;5.03;;
76852;SDS011;65825;52.232;10.566;2023-12-20T00:45:40;8.30;;;4.23;;
76852;SDS011;65825;52.232;10.566;2023-12-20T00:48:05;7.68;;;5.20;;
76852;SDS011;65825;52.232;10.566;2023-12-20T00:50:30;9.13;;;5.03;;
76852;SDS011;65825;52.232;10.566;2023-12-20T00:52:55;7.38;;;4.57;;
76852;SDS011;65825;52.232;10.566;2023-12-20T00:55:21;8.60;;;5.05;;
76852;SDS011;65825;52.232;10.566;2023-12-20T00:57:46;7.82;;;4.70;;
76852;SDS011;65825;52.232;10.566;2023-12-20T01:00:12;7.53;;;4.28;;
76852;SDS011;65825;52.232;10.566;2023-12-20T01:02:38;9.32;;;5.18;;
76852;SDS011;65825;52.232;10.566;2023-12-20T01:05:03;7.80;;;4.93;;
76852;SDS011;65825;52.232;10.566;2023-12-20T01:07:28;8.67;;;5.43;;
76852;SDS011;65825;52.232;10.566;2023-12-20T01:09:53;10.00;;;5.47;;
76852;SDS011;65825;52.232;10.566;2023-12-20T01:12:19;15.13;;;6.40;;
76852;SDS011;65825;52.232;10.566;2023-12-20T01:14:45;10.40;;;6.22;;
76852;SDS011;65825;52.232;10.566;2023-12-20T01:17:10;10.33;;;6.10;;
76852;SDS011;65825;52.232;10.566;2023-12-20T01:19:35;12.00;;;5.80;;
76852;SDS011;65825;52.232;10.566;2023-12-20T01:22:00;11.65;;;5.72;;
76852;SDS011;65825;52.232;10.566;2023-12-20T01:24:25;10.40;;;5.22;;
76852;SDS011;65825;52.232;10.566;2023-12-20T01:26:51;10.02;;;5.28;;
76852;SDS011;65825;52.232;10.566;2023-12-20T01:29:16;10.27;;;5.82;;
76852;SDS011;65825;52.232;10.566;2023-12-20T01:31:41;10.13;;;5.30;;
76852;SDS011;65825;52.232;10.566;2023-12-20T01:34:06;9.07;;;4.33;;
76852;SDS011;65825;52.232;10.566;2023-12-20T01:36:31;13.53;;;5.67;;
76852;SDS011;65825;52.232;10.566;2023-12-20T01:38:57;6.90;;;4.40;;
76852;SDS011;65825;52.232;10.566;2023-12-20T01:41:22;8.35;;;4.20;;
76852;SDS011;65825;52.232;10.566;2023-12-20T01:43:47;7.63;;;4.13;;
76852;SDS011;65825;52.232;10.566;2023-12-20T01:46:12;6.80;;;3.72;;
76852;SDS011;65825;52.232;10.566;2023-12-20T01:48:37;10.37;;;4.33;;
76852;SDS011;65825;52.232;10.566;2023-12-20T01:51:03;10.30;;;4.55;;
76852;SDS011;65825;52.232;10.566;2023-12-20T01:53:29;7.90;;;3.00;;
76852;SDS011;65825;52.232;10.566;2023-12-20T01:55:55;10.20;;;3.95;;
76852;SDS011;65825;52.232;10.566;2023-12-20T01:58:21;11.70;;;4.10;;
76852;SDS011;65825;52.232;10.566;2023-12-20T02:00:46;7.60;;;3.83;;
76852;SDS011;65825;52.232;10.566;2023-12-20T02:03:12;7.57;;;3.70;;
76852;SDS011;65825;52.232;10.566;2023-12-20T02:05:37;11.43;;;4.03;;
76852;SDS011;65825;52.232;10.566;2023-12-20T02:08:02;9.90;;;3.90;;
76852;SDS011;65825;52.232;10.566;2023-12-20T02:10:28;10.30;;;4.23;;
76852;SDS011;65825;52.232;10.566;2023-12-20T02:12:54;6.57;;;3.35;;
76852;SDS011;65825;52.232;10.566;2023-12-20T02:15:19;7.17;;;3.10;;
76852;SDS011;65825;52.232;10.566;2023-12-20T02:17:45;8.03;;;3.13;;
76852;SDS011;65825;52.232;10.566;2023-12-20T02:20:10;6.35;;;3.13;;
76852;SDS011;65825;52.232;10.566;2023-12-20T02:22:35;6.03;;;2.10;;
76852;SDS011;65825;52.232;10.566;2023-12-20T02:25:00;5.25;;;2.75;;
76852;SDS011;65825;52.232;10.566;2023-12-20T02:27:25;7.55;;;2.40;;
76852;SDS011;65825;52.232;10.566;2023-12-20T02:29:51;8.35;;;2.50;;
76852;SDS011;65825;52.232;10.566;2023-12-20T02:32:17;4.57;;;2.00;;
76852;SDS011;65825;52.232;10.566;2023-12-20T02:34:43;6.10;;;1.85;;
76852;SDS011;65825;52.232;10.566;2023-12-20T02:37:08;11.98;;;2.65;;
76852;SDS011;65825;52.232;10.566;2023-12-20T02:39:33;3.80;;;1.30;;
76852;SDS011;65825;52.232;10.566;2023-12-20T02:41:58;13.83;;;1.80;;
76852;SDS011;65825;52.232;10.566;2023-12-20T02:44:23;2.17;;;1.20;;
76852;SDS011;65825;52.232;10.566;2023-12-20T02:46:48;4.38;;;1.50;;
76852;SDS011;65825;52.232;10.566;2023-12-20T02:49:14;5.55;;;1.50;;
76852;SDS011;65825;52.232;10.566;2023-12-20T02:51:39;4.10;;;1.50;;
76852;SDS011;65825;52.232;10.566;2023-12-20T02:54:04;5.95;;;1.20;;
76852;SDS011;65825;52.232;10.566;2023-12-20T02:56:30;4.70;;;1.40;;
76852;SDS011;65825;52.232;10.566;2023-12-20T02:58:55;4.07;;;1.00;;
76852;SDS011;65825;52.232;10.566;2023-12-20T03:01:20;5.45;;;1.10;;
76852;SDS011;65825;52.232;10.566;2023-12-20T03:03:45;4.75;;;1.10;;
76852;SDS011;65825;52.232;10.566;2023-12-20T03:06:10;6.33;;;2.07;;
76852;SDS011;65825;52.232;10.566;2023-12-20T03:08:35;5.43;;;1.30;;
76852;SDS011;65825;52.232;10.566;2023-12-20T03:11:01;7.88;;;1.75;;
76852;SDS011;65825;52.232;10.566;2023-12-20T03:13:26;4.20;;;1.50;;
76852;SDS011;65825;52.232;10.566;2023-12-20T03:15:51;3.55;;;1.40;;
76852;SDS011;65825;52.232;10.566;2023-12-20T03:18:16;7.27;;;1.20;;
76852;SDS011;65825;52.232;10.566;2023-12-20T03:20:43;1.55;;;0.82;;
76852;SDS011;65825;52.232;10.566;2023-12-20T03:23:08;3.80;;;1.30;;
76852;SDS011;65825;52.232;10.566;2023-12-20T03:25:33;11.27;;;1.93;;
76852;SDS011;65825;52.232;10.566;2023-12-20T03:27:58;3.90;;;1.00;;
76852;SDS011;65825;52.232;10.566;2023-12-20T03:30:24;3.97;;;0.80;;
76852;SDS011;65825;52.232;10.566;2023-12-20T03:32:49;5.68;;;0.95;;
76852;SDS011;65825;52.232;10.566;2023-12-20T03:35:14;3.67;;;1.20;;
76852;SDS011;65825;52.232;10.566;2023-12-20T03:37:39;8.37;;;1.00;;
76852;SDS011;65825;52.232;10.566;2023-12-20T03:40:04;4.95;;;0.95;;
76852;SDS011;65825;52.232;10.566;2023-12-20T03:42:30;6.75;;;1.13;;
76852;SDS011;65825;52.232;10.566;2023-12-20T03:44:55;13.15;;;1.33;;
76852;SDS011;65825;52.232;10.566;2023-12-20T03:47:20;5.73;;;1.00;;
76852;SDS011;65825;52.232;10.566;2023-12-20T03:49:45;6.18;;;1.00;;
76852;SDS011;65825;52.232;10.566;2023-12-20T03:52:10;4.60;;;1.07;;
76852;SDS011;65825;52.232;10.566;2023-12-20T03:54:36;2.03;;;0.93;;
76852;SDS011;65825;52.232;10.566;2023-12-20T03:57:01;7.63;;;1.30;;
76852;SDS011;65825;52.232;10.566;2023-12-20T03:59:26;5.07;;;1.40;;
76852;SDS011;65825;52.232;10.566;2023-12-20T04:01:51;3.80;;;1.10;;
76852;SDS011;65825;52.232;10.566;2023-12-20T04:04:16;4.77;;;1.10;;
76852;SDS011;65825;52.232;10.566;2023-12-20T04:06:42;5.90;;;1.07;;
76852;SDS011;65825;52.232;10.566;2023-12-20T04:09:07;7.50;;;1.20;;
76852;SDS011;65825;52.232;10.566;2023-12-20T04:11:34;8.60;;;1.60;;
76852;SDS011;65825;52.232;10.566;2023-12-20T04:13:59;3.43;;;0.87;;
76852;SDS011;65825;52.232;10.566;2023-12-20T04:16:24;1.92;;;0.80;;
76852;SDS011;65825;52.232;10.566;2023-12-20T04:18:49;6.90;;;1.40;;
76852;SDS011;65825;52.232;10.566;2023-12-20T04:21:15;2.27;;;0.67;;
76852;SDS011;65825;52.232;10.566;2023-12-20T04:23:40;5.93;;;1.00;;
76852;SDS011;65825;52.232;10.566;2023-12-20T04:26:05;2.83;;;1.00;;
76852;SDS011;65825;52.232;10.566;2023-12-20T04:28:30;3.00;;;0.80;;
76852;SDS011;65825;52.232;10.566;2023-12-20T04:30:55;5.43;;;1.20;;
76852;SDS011;65825;52.232;10.566;2023-12-20T04:33:21;6.03;;;1.20;;
76852;SDS011;65825;52.232;10.566;2023-12-20T04:35:46;3.73;;;0.80;;
76852;SDS011;65825;52.232;10.566;2023-12-20T04:38:12;1.77;;;0.60;;
76852;SDS011;65825;52.232;10.566;2023-12-20T04:40:37;5.20;;;1.17;;
76852;SDS011;65825;52.232;10.566;2023-12-20T04:43:02;2.27;;;0.80;;
76852;SDS011;65825;52.232;10.566;2023-12-20T04:45:27;1.13;;;0.80;;
76852;SDS011;65825;52.232;10.566;2023-12-20T04:47:52;7.18;;;1.15;;
76852;SDS011;65825;52.232;10.566;2023-12-20T04:50:18;2.13;;;0.77;;
76852;SDS011;65825;52.232;10.566;2023-12-20T04:52:44;4.85;;;1.25;;
76852;SDS011;65825;52.232;10.566;2023-12-20T04:55:10;1.57;;;0.80;;
76852;SDS011;65825;52.232;10.566;2023-12-20T04:57:35;7.27;;;1.37;;
76852;SDS011;65825;52.232;10.566;2023-12-20T05:00:00;5.10;;;1.90;;
76852;SDS011;65825;52.232;10.566;2023-12-20T05:02:25;4.93;;;1.00;;
76852;SDS011;65825;52.232;10.566;2023-12-20T05:04:51;2.10;;;0.87;;
76852;SDS011;65825;52.232;10.566;2023-12-20T05:07:16;3.17;;;1.20;;
76852;SDS011;65825;52.232;10.566;2023-12-20T05:09:41;2.33;;;0.70;;
76852;SDS011;65825;52.232;10.566;2023-12-20T05:12:06;4.80;;;0.87;;
76852;SDS011;65825;52.232;10.566;2023-12-20T05:14:32;1.53;;;0.80;;
76852;SDS011;65825;52.232;10.566;2023-12-20T05:16:57;5.82;;;1.33;;
76852;SDS011;65825;52.232;10.566;2023-12-20T05:19:22;4.90;;;1.23;;
76852;SDS011;65825;52.232;10.566;2023-12-20T05:21:47;5.15;;;1.08;;
76852;SDS011;65825;52.232;10.566;2023-12-20T05:24:13;1.83;;;1.00;;
76852;SDS011;65825;52.232;10.566;2023-12-20T05:26:38;8.70;;;1.77;;
76852;SDS011;65825;52.232;10.566;2023-12-20T05:29:03;4.00;;;1.20;;
76852;SDS011;65825;52.232;10.566;2023-12-20T05:31:28;11.18;;;2.45;;
76852;SDS011;65825;52.232;10.566;2023-12-20T05:33:53;8.63;;;2.23;;
76852;SDS011;65825;52.232;10.566;2023-12-20T05:36:18;9.40;;;1.55;;
76852;SDS011;65825;52.232;10.566;2023-12-20T05:38:44;3.53;;;1.30;;
76852;SDS011;65825;52.232;10.566;2023-12-20T05:41:09;2.93;;;1.10;;
76852;SDS011;65825;52.232;10.566;2023-12-20T05:43:34;5.57;;;1.50;;
76852;SDS011;65825;52.232;10.566;2023-12-20T05:45:59;9.40;;;1.60;;
76852;SDS011;65825;52.232;10.566;2023-12-20T05:48:24;8.27;;;1.70;;
76852;SDS011;65825;52.232;10.566;2023-12-20T05:50:49;2.78;;;1.05;;
76852;SDS011;65825;52.232;10.566;2023-12-20T05:53:15;3.53;;;1.10;;
76852;SDS011;65825;52.232;10.566;2023-12-20T05:55:40;5.55;;;2.63;;
76852;SDS011;65825;52.232;10.566;2023-12-20T05:58:05;3.23;;;1.20;;
76852;SDS011;65825;52.232;10.566;2023-12-20T06:00:30;3.80;;;1.53;;
76852;SDS011;65825;52.232;10.566;2023-12-20T06:02:55;4.53;;;1.27;;
76852;SDS011;65825;52.232;10.566;2023-12-20T06:05:20;8.38;;;1.55;;
76852;SDS011;65825;52.232;10.566;2023-12-20T06:07:46;2.23;;;1.10;;
76852;SDS011;65825;52.232;10.566;2023-12-20T06:10:13;6.85;;;1.13;;
76852;SDS011;65825;52.232;10.566;2023-12-20T06:12:38;5.38;;;1.08;;
76852;SDS011;65825;52.232;10.566;2023-12-20T06:15:04;4.60;;;1.83;;
76852;SDS011;65825;52.232;10.566;2023-12-20T06:17:29;3.00;;;2.17;;
76852;SDS011;65825;52.232;10.566;2023-12-20T06:19:56;4.07;;;1.55;;
76852;SDS011;65825;52.232;10.566;2023-12-20T06:22:21;5.20;;;1.40;;
76852;SDS011;65825;52.232;10.566;2023-12-20T06:24:46;6.50;;;1.60;;
76852;SDS011;65825;52.232;10.566;2023-12-20T06:27:11;7.17;;;1.87;;
76852;SDS011;65825;52.232;10.566;2023-12-20T06:29:36;7.07;;;2.20;;
76852;SDS011;65825;52.232;10.566;2023-12-20T06:32:02;6.23;;;1.70;;
76852;SDS011;65825;52.232;10.566;2023-12-20T06:34:27;6.50;;;2.10;;
76852;SDS011;65825;52.232;10.566;2023-12-20T06:36:52;9.63;;;1.85;;
76852;SDS011;65825;52.232;10.566;2023-12-20T06:39:17;8.50;;;1.40;;
76852;SDS011;65825;52.232;10.566;2023-12-20T06:41:42;2.60;;;1.58;;
76852;SDS011;65825;52.232;10.566;2023-12-20T06:44:08;3.65;;;1.40;;
76852;SDS011;65825;52.232;10.566;2023-12-20T06:46:33;4.75;;;1.83;;
76852;SDS011;65825;52.232;10.566;2023-12-20T06:48:58;5.57;;;1.90;;
76852;SDS011;65825;52.232;10.566;2023-12-20T06:51:23;10.93;;;2.17;;
76852;SDS011;65825;52.232;10.566;2023-12-20T06:53:50;5.95;;;1.40;;
76852;SDS011;65825;52.232;10.566;2023-12-20T06:56:15;6.10;;;2.05;;
76852;SDS011;65825;52.232;10.566;2023-12-20T06:58:41;5.65;;;1.80;;
76852;SDS011;65825;52.232;10.566;2023-12-20T07:01:10;8.57;;;1.97;;
76852;SDS011;65825;52.232;10.566;2023-12-20T07:03:35;6.78;;;1.98;;
76852;SDS011;65825;52.232;10.566;2023-12-20T07:06:00;8.70;;;2.50;;
76852;SDS011;65825;52.232;10.566;2023-12-20T07:08:26;5.72;;;2.00;;
76852;SDS011;65825;52.232;10.566;2023-12-20T07:10:51;7.97;;;2.10;;
76852;SDS011;65825;52.232;10.566;2023-12-20T07:13:16;7.57;;;2.08;;
76852;SDS011;65825;52.232;10.566;2023-12-20T07:15:41;13.03;;;2.53;;
76852;SDS011;65825;52.232;10.566;2023-12-20T07:18:07;10.27;;;2.22;;
76852;SDS011;65825;52.232;10.566;2023-12-20T07:20:32;7.13;;;2.23;;
76852;SDS011;65825;52.232;10.566;2023-12-20T07:22:57;6.37;;;2.00;;
76852;SDS011;65825;52.232;10.566;2023-12-20T07:25:22;6.30;;;2.28;;
76852;SDS011;65825;52.232;10.566;2023-12-20T07:27:47;18.15;;;2.60;;
76852;SDS011;65825;52.232;10.566;2023-12-20T07:30:12;6.50;;;2.70;;
76852;SDS011;65825;52.232;10.566;2023-12-20T07:32:38;7.17;;;2.17;;
76852;SDS011;65825;52.232;10.566;2023-12-20T07:35:03;9.88;;;3.25;;
76852;SDS011;65825;52.232;10.566;2023-12-20T07:37:28;9.43;;;3.03;;
76852;SDS011;65825;52.232;10.566;2023-12-20T07:39:53;10.70;;;2.50;;
76852;SDS011;65825;52.232;10.566;2023-12-20T07:42:18;11.23;;;4.22;;
76852;SDS011;65825;52.232;10.566;2023-12-20T07:44:44;8.53;;;2.77;;
76852;SDS011;65825;52.232;10.566;2023-12-20T07:47:09;4.87;;;1.77;;
76852;SDS011;65825;52.232;10.566;2023-12-20T07:49:34;10.03;;;2.27;;
76852;SDS011;65825;52.232;10.566;2023-12-20T07:51:59;11.93;;;2.03;;
76852;SDS011;65825;52.232;10.566;2023-12-20T07:54:24;8.63;;;2.13;;
76852;SDS011;65825;52.232;10.566;2023-12-20T07:56:49;8.93;;;2.30;;
76852;SDS011;65825;52.232;10.566;2023-12-20T07:59:15;10.60;;;2.38;;
76852;SDS011;65825;52.232;10.566;2023-12-20T08:01:40;7.20;;;2.17;;
76852;SDS011;65825;52.232;10.566;2023-12-20T08:04:05;5.37;;;1.87;;
76852;SDS011;65825;52.232;10.566;2023-12-20T08:06:30;3.53;;;1.92;;
76852;SDS011;65825;52.232;10.566;2023-12-20T08:08:55;8.90;;;1.75;;
76852;SDS011;65825;52.232;10.566;2023-12-20T08:11:20;8.73;;;1.92;;
76852;SDS011;65825;52.232;10.566;2023-12-20T08:13:45;8.02;;;2.38;;
76852;SDS011;65825;52.232;10.566;2023-12-20T08:16:11;6.93;;;1.87;;
76852;SDS011;65825;52.232;10.566;2023-12-20T08:18:38;7.00;;;1.85;;
76852;SDS011;65825;52.232;10.566;2023-12-20T08:21:03;4.23;;;1.37;;
76852;SDS011;65825;52.232;10.566;2023-12-20T08:23:28;5.53;;;2.07;;
76852;SDS011;65825;52.232;10.566;2023-12-20T08:25:54;7.75;;;1.45;;
76852;SDS011;65825;52.232;10.566;2023-12-20T08:28:19;8.67;;;2.27;;
76852;SDS011;65825;52.232;10.566;2023-12-20T08:30:44;5.37;;;1.60;;
76852;SDS011;65825;52.232;10.566;2023-12-20T08:33:09;4.70;;;1.63;;
76852;SDS011;65825;52.232;10.566;2023-12-20T08:35:38;7.10;;;2.08;;
76852;SDS011;65825;52.232;10.566;2023-12-20T08:38:03;5.85;;;2.05;;
76852;SDS011;65825;52.232;10.566;2023-12-20T08:40:29;8.07;;;2.10;;
76852;SDS011;65825;52.232;10.566;2023-12-20T08:42:54;5.80;;;2.40;;
76852;SDS011;65825;52.232;10.566;2023-12-20T08:45:20;8.98;;;2.03;;
76852;SDS011;65825;52.232;10.566;2023-12-20T08:47:45;5.30;;;1.43;;
76852;SDS011;65825;52.232;10.566;2023-12-20T08:50:10;6.67;;;2.43;;
76852;SDS011;65825;52.232;10.566;2023-12-20T08:52:35;4.30;;;1.73;;
76852;SDS011;65825;52.232;10.566;2023-12-20T08:55:01;7.93;;;1.80;;
76852;SDS011;65825;52.232;10.566;2023-12-20T08:57:26;8.30;;;3.13;;
76852;SDS011;65825;52.232;10.566;2023-12-20T08:59:51;8.80;;;1.90;;
76852;SDS011;65825;52.232;10.566;2023-12-20T09:02:16;7.03;;;1.93;;
76852;SDS011;65825;52.232;10.566;2023-12-20T09:04:41;6.20;;;1.73;;
76852;SDS011;65825;52.232;10.566;2023-12-20T09:07:07;5.43;;;1.73;;
76852;SDS011;65825;52.232;10.566;2023-12-20T09:09:32;6.40;;;1.90;;
76852;SDS011;65825;52.232;10.566;2023-12-20T09:11:58;6.72;;;2.30;;
76852;SDS011;65825;52.232;10.566;2023-12-20T09:14:23;3.28;;;1.60;;
76852;SDS011;65825;52.232;10.566;2023-12-20T09:16:48;7.40;;;1.73;;
76852;SDS011;65825;52.232;10.566;2023-12-20T09:19:16;6.72;;;2.20;;
76852;SDS011;65825;52.232;10.566;2023-12-20T09:21:41;6.53;;;1.70;;
76852;SDS011;65825;52.232;10.566;2023-12-20T09:24:06;5.20;;;1.77;;
76852;SDS011;65825;52.232;10.566;2023-12-20T09:26:31;8.10;;;2.00;;
76852;SDS011;65825;52.232;10.566;2023-12-20T09:28:56;6.87;;;2.40;;
76852;SDS011;65825;52.232;10.566;2023-12-20T09:31:21;4.25;;;1.70;;
76852;SDS011;65825;52.232;10.566;2023-12-20T09:33:47;7.07;;;2.28;;
76852;SDS011;65825;52.232;10.566;2023-12-20T09:36:12;5.90;;;2.40;;
76852;SDS011;65825;52.232;10.566;2023-12-20T09:38:37;8.53;;;1.80;;
76852;SDS011;65825;52.232;10.566;2023-12-20T09:41:02;3.45;;;1.63;;
76852;SDS011;65825;52.232;10.566;2023-12-20T09:43:29;7.15;;;1.83;;
76852;SDS011;65825;52.232;10.566;2023-12-20T09:45:55;5.60;;;2.13;;
76852;SDS011;65825;52.232;10.566;2023-12-20T09:48:25;3.88;;;1.67;;
76852;SDS011;65825;52.232;10.566;2023-12-20T09:50:51;8.15;;;2.17;;
76852;SDS011;65825;52.232;10.566;2023-12-20T09:53:16;5.87;;;2.17;;
76852;SDS011;65825;52.232;10.566;2023-12-20T09:55:42;6.80;;;2.20;;
76852;SDS011;65825;52.232;10.566;2023-12-20T09:58:08;5.57;;;1.90;;
76852;SDS011;65825;52.232;10.566;2023-12-20T10:00:34;4.35;;;1.52;;
76852;SDS011;65825;52.232;10.566;2023-12-20T10:03:00;4.38;;;1.92;;
76852;SDS011;65825;52.232;10.566;2023-12-20T10:05:29;6.13;;;1.42;;
76852;SDS011;65825;52.232;10.566;2023-12-20T10:07:54;5.90;;;1.65;;
76852;SDS011;65825;52.232;10.566;2023-12-20T10:10:19;4.27;;;2.00;;
76852;SDS011;65825;52.232;10.566;2023-12-20T10:13:04;4.40;;;1.93;;
76852;SDS011;65825;52.232;10.566;2023-12-20T10:15:29;7.47;;;1.90;;
76852;SDS011;65825;52.232;10.566;2023-12-20T10:17:55;7.88;;;2.22;;
76852;SDS011;65825;52.232;10.566;2023-12-20T10:20:21;6.73;;;1.97;;
76852;SDS011;65825;52.232;10.566;2023-12-20T10:22:46;3.05;;;1.40;;
76852;SDS011;65825;52.232;10.566;2023-12-20T10:25:11;5.32;;;1.83;;
76852;SDS011;65825;52.232;10.566;2023-12-20T10:27:36;4.68;;;1.50;;
76852;SDS011;65825;52.232;10.566;2023-12-20T10:30:02;6.22;;;2.40;;
76852;SDS011;65825;52.232;10.566;2023-12-20T10:32:27;5.88;;;1.73;;
76852;SDS011;65825;52.232;10.566;2023-12-20T10:34:53;8.33;;;2.87;;
76852;SDS011;65825;52.232;10.566;2023-12-20T10:37:18;3.03;;;1.75;;
76852;SDS011;65825;52.232;10.566;2023-12-20T10:39:43;7.83;;;2.47;;
76852;SDS011;65825;52.232;10.566;2023-12-20T10:42:12;5.77;;;1.80;;
76852;SDS011;65825;52.232;10.566;2023-12-20T10:44:37;8.70;;;2.10;;
76852;SDS011;65825;52.232;10.566;2023-12-20T10:47:03;7.27;;;2.17;;
76852;SDS011;65825;52.232;10.566;2023-12-20T10:49:29;10.18;;;2.47;;
76852;SDS011;65825;52.232;10.566;2023-12-20T10:51:54;4.10;;;2.05;;
76852;SDS011;65825;52.232;10.566;2023-12-20T10:54:22;4.32;;;2.00;;
76852;SDS011;65825;52.232;10.566;2023-12-20T10:56:47;5.20;;;1.70;;
76852;SDS011;65825;52.232;10.566;2023-12-20T10:59:15;4.03;;;2.40;;
76852;SDS011;65825;52.232;10.566;2023-12-20T11:01:41;5.28;;;2.22;;
76852;SDS011;65825;52.232;10.566;2023-12-20T11:04:07;6.53;;;1.92;;
76852;SDS011;65825;52.232;10.566;2023-12-20T11:06:36;8.15;;;2.63;;
76852;SDS011;65825;52.232;10.566;2023-12-20T11:09:14;5.30;;;2.10;;
76852;SDS011;65825;52.232;10.566;2023-12-20T11:14:13;6.15;;;2.25;;
76852;SDS011;65825;52.232;10.566;2023-12-20T11:16:40;5.00;;;1.60;;
76852;SDS011;65825;52.232;10.566;2023-12-20T11:19:06;5.50;;;2.00;;
76852;SDS011;65825;52.232;10.566;2023-12-20T11:21:31;3.92;;;2.25;;
76852;SDS011;65825;52.232;10.566;2023-12-20T11:23:56;6.53;;;2.70;;
76852;SDS011;65825;52.232;10.566;2023-12-20T11:26:28;6.13;;;2.40;;
76852;SDS011;65825;52.232;10.566;2023-12-20T11:31:40;5.30;;;2.50;;
76852;SDS011;65825;52.232;10.566;2023-12-20T11:34:26;6.90;;;2.90;;
76852;SDS011;65825;52.232;10.566;2023-12-20T11:36:56;5.65;;;2.92;;
76852;SDS011;65825;52.232;10.566;2023-12-20T11:39:21;5.68;;;2.70;;
76852;SDS011;65825;52.232;10.566;2023-12-20T11:41:48;6.50;;;2.38;;
76852;SDS011;65825;52.232;10.566;2023-12-20T11:44:14;2.97;;;2.05;;
76852;SDS011;65825;52.232;10.566;2023-12-20T11:46:39;8.50;;;2.60;;
76852;SDS011;65825;52.232;10.566;2023-12-20T11:49:05;6.03;;;2.90;;
76852;SDS011;65825;52.232;10.566;2023-12-20T11:51:30;5.17;;;3.17;;
76852;SDS011;65825;52.232;10.566;2023-12-20T11:53:55;6.90;;;2.60;;
76852;SDS011;65825;52.232;10.566;2023-12-20T11:56:20;10.67;;;2.67;;
76852;SDS011;65825;52.232;10.566;2023-12-20T11:58:45;5.95;;;3.03;;
76852;SDS011;65825;52.232;10.566;2023-12-20T12:01:11;7.70;;;3.40;;
76852;SDS011;65825;52.232;10.566;2023-12-20T12:03:36;7.65;;;2.20;;
76852;SDS011;65825;52.232;10.566;2023-12-20T12:06:01;4.60;;;2.63;;
76852;SDS011;65825;52.232;10.566;2023-12-20T12:08:29;5.32;;;3.28;;
76852;SDS011;65825;52.232;10.566;2023-12-20T12:10:54;7.03;;;2.90;;
76852;SDS011;65825;52.232;10.566;2023-12-20T12:13:19;6.73;;;2.97;;
76852;SDS011;65825;52.232;10.566;2023-12-20T12:15:45;8.43;;;2.75;;
76852;SDS011;65825;52.232;10.566;2023-12-20T12:18:10;7.73;;;3.10;;
76852;SDS011;65825;52.232;10.566;2023-12-20T12:20:35;6.17;;;2.53;;
76852;SDS011;65825;52.232;10.566;2023-12-20T12:23:04;8.17;;;3.00;;
76852;SDS011;65825;52.232;10.566;2023-12-20T12:25:30;5.20;;;2.83;;
76852;SDS011;65825;52.232;10.566;2023-12-20T12:27:56;3.22;;;1.40;;
76852;SDS011;65825;52.232;10.566;2023-12-20T12:30:21;5.32;;;2.47;;
76852;SDS011;65825;52.232;10.566;2023-12-20T12:32:47;7.67;;;2.33;;
76852;SDS011;65825;52.232;10.566;2023-12-20T12:35:12;2.97;;;1.58;;
76852;SDS011;65825;52.232;10.566;2023-12-20T12:37:38;5.93;;;1.83;;
76852;SDS011;65825;52.232;10.566;2023-12-20T12:40:05;4.65;;;1.73;;
76852;SDS011;65825;52.232;10.566;2023-12-20T12:42:30;2.28;;;0.98;;
76852;SDS011;65825;52.232;10.566;2023-12-20T12:44:56;3.10;;;1.40;;
76852;SDS011;65825;52.232;10.566;2023-12-20T12:47:23;4.32;;;1.58;;
76852;SDS011;65825;52.232;10.566;2023-12-20T12:49:52;3.57;;;1.33;;
76852;SDS011;65825;52.232;10.566;2023-12-20T12:52:18;16.98;;;2.72;;
76852;SDS011;65825;52.232;10.566;2023-12-20T12:54:43;2.55;;;1.27;;
76852;SDS011;65825;52.232;10.566;2023-12-20T12:57:09;3.00;;;1.35;;
76852;SDS011;65825;52.232;10.566;2023-12-20T12:59:35;2.67;;;0.80;;
76852;SDS011;65825;52.232;10.566;2023-12-20T13:02:00;5.33;;;1.23;;
76852;SDS011;65825;52.232;10.566;2023-12-20T13:04:25;3.47;;;0.65;;
76852;SDS011;65825;52.232;10.566;2023-12-20T13:06:50;2.20;;;0.60;;
76852;SDS011;65825;52.232;10.566;2023-12-20T13:09:16;1.60;;;0.77;;
76852;SDS011;65825;52.232;10.566;2023-12-20T13:11:41;1.52;;;0.70;;
76852;SDS011;65825;52.232;10.566;2023-12-20T13:14:06;3.22;;;0.70;;
76852;SDS011;65825;52.232;10.566;2023-12-20T13:16:35;2.47;;;0.60;;
76852;SDS011;65825;52.232;10.566;2023-12-20T13:19:00;2.73;;;0.73;;
76852;SDS011;65825;52.232;10.566;2023-12-20T13:21:26;1.48;;;0.50;;
76852;SDS011;65825;52.232;10.566;2023-12-20T13:23:51;0.70;;;0.30;;
76852;SDS011;65825;52.232;10.566;2023-12-20T13:26:16;2.28;;;0.40;;
76852;SDS011;65825;52.232;10.566;2023-12-20T13:28:42;1.10;;;0.60;;
76852;SDS011;65825;52.232;10.566;2023-12-20T13:31:07;3.05;;;0.63;;
76852;SDS011;65825;52.232;10.566;2023-12-20T13:33:32;0.95;;;0.40;;
76852;SDS011;65825;52.232;10.566;2023-12-20T13:35:57;0.60;;;0.30;;
76852;SDS011;65825;52.232;10.566;2023-12-20T13:38:23;0.22;;;0.22;;
76852;SDS011;65825;52.232;10.566;2023-12-20T13:40:48;1.17;;;0.60;;
76852;SDS011;65825;52.232;10.566;2023-12-20T13:43:13;2.17;;;0.50;;
76852;SDS011;65825;52.232;10.566;2023-12-20T13:45:39;2.07;;;0.90;;
76852;SDS011;65825;52.232;10.566;2023-12-20T13:48:04;5.20;;;1.03;;
76852;SDS011;65825;52.232;10.566;2023-12-20T13:50:29;6.05;;;1.77;;
76852;SDS011;65825;52.232;10.566;2023-12-20T13:52:54;3.57;;;0.87;;
76852;SDS011;65825;52.232;10.566;2023-12-20T13:55:19;5.30;;;1.58;;
76852;SDS011;65825;52.232;10.566;2023-12-20T13:57:47;5.47;;;1.10;;
76852;SDS011;65825;52.232;10.566;2023-12-20T14:00:13;4.22;;;0.90;;
76852;SDS011;65825;52.232;10.566;2023-12-20T14:02:39;7.43;;;1.50;;
76852;SDS011;65825;52.232;10.566;2023-12-20T14:05:05;2.58;;;0.68;;
76852;SDS011;65825;52.232;10.566;2023-12-20T14:07:31;1.00;;;0.60;;
76852;SDS011;65825;52.232;10.566;2023-12-20T14:09:56;1.63;;;0.60;;
76852;SDS011;65825;52.232;10.566;2023-12-20T14:12:21;2.90;;;0.63;;
76852;SDS011;65825;52.232;10.566;2023-12-20T14:14:46;5.70;;;1.53;;
76852;SDS011;65825;52.232;10.566;2023-12-20T14:17:11;2.33;;;0.95;;
76852;SDS011;65825;52.232;10.566;2023-12-20T14:19:36;4.00;;;1.35;;
76852;SDS011;65825;52.232;10.566;2023-12-20T14:22:02;4.63;;;1.20;;
76852;SDS011;65825;52.232;10.566;2023-12-20T14:24:28;1.45;;;0.80;;
76852;SDS011;65825;52.232;10.566;2023-12-20T14:26:53;2.63;;;1.27;;
76852;SDS011;65825;52.232;10.566;2023-12-20T14:29:18;3.27;;;1.00;;